Lake Isabella, California
Current Conditions -  °F | °C
As of 1:54 PM on Wednesday 22 Oct 2014 (Local Time) from KBFL Reporting Station
Clear Clear  
Wind Chill: 73°   Ceiling: Unl
Heat Index: 73°   Visibility: 10mi
Dew Point: 44°   Wind: 8mph
Humidity: 35%   Direction: 260°W
Pressure: 30.02"   Gusts: NA
Location:  35.61°N, 118.49°W
Report Text: KBFL 222054Z 26007KT 10SM CLR 23/07 A3002 RMK AO2 SLP160 T02280067 56015
Loading
Personal Weather Stations






























Interactive Weather Map
Tropical Storm Tracking
New forecast layout! Learn more

10-Day Weather Forecast

Advertisements
Track Severe Weather on mobile